createdAt,value
2024-02-29T00:02:11.552Z,101349.19
2024-02-29T00:04:37.999Z,101339.81
2024-02-29T00:07:04.831Z,101339.81
2024-02-29T00:09:31.809Z,101336.91
2024-02-29T00:11:58.239Z,101329.41
2024-02-29T00:14:24.653Z,101330.25
2024-02-29T00:16:51.493Z,101331.50
2024-02-29T00:19:18.714Z,101331.72
2024-02-29T00:21:45.650Z,101326.75
2024-02-29T00:24:12.076Z,101324.44
2024-02-29T00:26:38.502Z,101331.53
2024-02-29T00:29:05.501Z,101340.41
2024-02-29T00:31:31.919Z,101328.16
2024-02-29T00:33:58.326Z,101329.84
2024-02-29T00:36:24.696Z,101336.91
2024-02-29T00:38:58.864Z,101340.84
2024-02-29T00:41:31.963Z,101337.31
2024-02-29T00:43:58.350Z,101333.38
2024-02-29T00:46:24.729Z,101319.03
2024-02-29T00:48:51.145Z,101321.94
2024-02-29T00:51:17.511Z,101314.66
2024-02-29T00:53:43.982Z,101314.91
2024-02-29T00:56:10.458Z,101313.63
2024-02-29T00:58:36.893Z,101314.44
2024-02-29T01:01:03.586Z,101311.13
2024-02-29T01:03:32.609Z,101311.53
2024-02-29T01:05:59.904Z,101311.94
2024-02-29T01:08:26.306Z,101307.81
2024-02-29T01:10:52.933Z,101305.31
2024-02-29T01:13:19.425Z,101303.22
2024-02-29T01:15:46.277Z,101305.31
2024-02-29T01:18:12.793Z,101303.03
2024-02-29T01:20:39.496Z,101288.50
2024-02-29T01:23:05.885Z,101288.69
2024-02-29T01:25:32.256Z,101292.41
2024-02-29T01:27:58.855Z,101289.09
2024-02-29T01:30:25.366Z,101289.50
2024-02-29T01:32:51.734Z,101291.38
2024-02-29T01:35:18.168Z,101286.19
2024-02-29T01:37:44.503Z,101276.22
2024-02-29T01:40:11.259Z,101273.34
2024-02-29T01:42:41.530Z,101274.34
2024-02-29T01:45:08.282Z,101272.47
2024-02-29T01:47:34.651Z,101267.72
2024-02-29T01:50:04.447Z,101262.75
2024-02-29T01:52:33.845Z,101258.38
2024-02-29T01:55:00.668Z,101257.53
2024-02-29T01:57:27.893Z,101256.72
2024-02-29T01:59:54.273Z,101255.28
2024-02-29T02:02:20.654Z,101245.72
2024-02-29T02:04:47.073Z,101249.66
2024-02-29T02:07:13.446Z,101241.38
2024-02-29T02:09:42.411Z,101240.94
2024-02-29T02:12:11.508Z,101244.25
2024-02-29T02:14:40.016Z,101240.53
2024-02-29T02:17:07.566Z,101236.78
2024-02-29T02:19:34.010Z,101238.44
2024-02-29T02:22:00.634Z,101239.88
2024-02-29T02:24:27.034Z,101240.44
2024-02-29T02:26:53.473Z,101230.50
2024-02-29T02:29:19.891Z,101224.25
2024-02-29T02:31:46.262Z,101226.34
2024-02-29T02:34:12.760Z,101218.25
2024-02-29T02:36:39.307Z,101211.81
2024-02-29T02:39:05.714Z,101219.06
2024-02-29T02:41:32.231Z,101203.13
2024-02-29T02:43:58.795Z,101199.81
2024-02-29T02:46:25.145Z,101195.25
2024-02-29T02:48:51.526Z,101186.72
2024-02-29T02:51:18.005Z,101196.47
2024-02-29T02:53:44.363Z,101186.09
2024-02-29T02:56:10.721Z,101177.59
2024-02-29T02:58:37.118Z,101177.41
2024-02-29T03:01:04.191Z,101172.81
2024-02-29T03:03:30.664Z,101171.19
2024-02-29T03:05:57.183Z,101160.38
2024-02-29T03:08:23.585Z,101165.38
2024-02-29T03:10:49.965Z,101158.09
2024-02-29T03:13:16.469Z,101162.88
2024-02-29T03:15:42.874Z,101162.63
2024-02-29T03:18:09.376Z,101156.63
2024-02-29T03:20:35.914Z,101150.03
2024-02-29T03:23:02.286Z,101140.88
2024-02-29T03:25:28.646Z,101143.38
2024-02-29T03:27:55.397Z,101138.00
2024-02-29T03:30:21.860Z,101132.59
2024-02-29T03:32:48.262Z,101130.75
2024-02-29T03:35:14.757Z,101123.47
2024-02-29T03:37:41.166Z,101123.91
2024-02-29T03:40:08.394Z,101111.88
2024-02-29T03:42:34.937Z,101120.97
2024-02-29T03:45:01.308Z,101107.50
2024-02-29T03:47:27.742Z,101113.09
2024-02-29T03:49:54.148Z,101107.09
2024-02-29T03:52:20.573Z,101105.22
2024-02-29T03:54:46.998Z,101101.06
2024-02-29T03:57:13.348Z,101095.91
2024-02-29T03:59:39.733Z,101102.56
2024-02-29T04:02:06.142Z,101094.91
2024-02-29T04:04:32.523Z,101102.13
2024-02-29T04:06:58.944Z,101094.47
2024-02-29T04:09:25.943Z,101093.22
2024-02-29T04:11:52.383Z,101094.47
2024-02-29T04:14:18.778Z,101081.00
2024-02-29T04:16:45.173Z,101084.94
2024-02-29T04:19:12.046Z,101088.66
2024-02-29T04:21:44.204Z,101082.66
2024-02-29T04:24:10.567Z,101080.34
2024-02-29T04:26:37.149Z,101084.09
2024-02-29T04:29:03.740Z,101082.81
2024-02-29T04:31:30.099Z,101074.97
2024-02-29T04:33:56.630Z,101077.84
2024-02-29T04:36:23.123Z,101067.91
2024-02-29T04:38:51.014Z,101069.09
2024-02-29T04:41:17.933Z,101065.78
2024-02-29T04:43:44.303Z,101062.06
2024-02-29T04:46:10.749Z,101065.78
2024-02-29T04:48:37.236Z,101060.78
2024-02-29T04:51:05.740Z,101059.56
2024-02-29T04:53:32.129Z,101056.44
2024-02-29T04:55:58.789Z,101059.97
2024-02-29T04:58:25.159Z,101055.81
2024-02-29T05:00:51.790Z,101051.69
2024-02-29T05:03:18.262Z,101057.91
2024-02-29T05:05:44.661Z,101047.56
2024-02-29T05:08:11.078Z,101045.88
2024-02-29T05:10:37.461Z,101047.94
2024-02-29T05:13:03.951Z,101039.69
2024-02-29T05:15:30.411Z,101037.84
2024-02-29T05:17:56.799Z,101032.47
2024-02-29T05:20:23.338Z,101034.72
2024-02-29T05:22:54.695Z,101037.81
2024-02-29T05:25:21.850Z,101030.16
2024-02-29T05:27:48.337Z,101026.84
2024-02-29T05:30:16.070Z,101021.47
2024-02-29T05:32:42.494Z,101030.16
2024-02-29T05:35:09.071Z,101019.41
2024-02-29T05:37:37.231Z,101014.00
2024-02-29T05:40:06.824Z,101015.44
2024-02-29T05:42:33.435Z,101014.41
2024-02-29T05:45:01.236Z,101009.84
2024-02-29T05:47:27.786Z,101007.75
2024-02-29T05:49:54.232Z,101003.63
2024-02-29T05:52:20.622Z,101002.00
2024-02-29T05:54:47.012Z,101003.63
2024-02-29T05:57:13.621Z,100998.88
2024-02-29T05:59:40.091Z,101001.56
2024-02-29T06:02:06.608Z,100999.06
2024-02-29T06:04:33.089Z,100995.56
2024-02-29T06:06:59.523Z,100996.19
2024-02-29T06:09:25.986Z,100999.06
2024-02-29T06:11:52.506Z,100997.00
2024-02-29T06:14:19.044Z,100995.16
2024-02-29T06:16:45.615Z,100998.94
2024-02-29T06:19:12.096Z,100990.88
2024-02-29T06:21:38.512Z,100990.66
2024-02-29T06:24:05.112Z,100996.47
2024-02-29T06:26:31.733Z,100992.31
2024-02-29T06:28:58.128Z,100995.41
2024-02-29T06:31:26.722Z,100987.53
2024-02-29T06:33:53.475Z,101000.81
2024-02-29T06:36:19.956Z,101000.63
2024-02-29T06:38:46.376Z,100988.38
2024-02-29T06:41:12.849Z,100987.75
2024-02-29T06:43:39.200Z,100987.34
2024-02-29T06:46:08.109Z,100983.41
2024-02-29T06:48:34.949Z,100980.50
2024-02-29T06:51:01.616Z,100978.44
2024-02-29T06:53:29.892Z,100979.25
2024-02-29T06:55:56.232Z,100982.56
2024-02-29T06:58:22.827Z,100979.47
2024-02-29T07:00:49.706Z,100967.66
2024-02-29T07:03:16.287Z,100974.28
2024-02-29T07:05:43.034Z,100979.06
2024-02-29T07:08:11.354Z,100975.94
2024-02-29T07:10:41.365Z,100976.34
2024-02-29T07:13:07.851Z,100964.78
2024-02-29T07:15:35.007Z,100967.03
2024-02-29T07:18:02.325Z,100964.72
2024-02-29T07:20:29.212Z,100959.13
2024-02-29T07:22:57.335Z,100963.91
2024-02-29T07:25:23.788Z,100968.88
2024-02-29T07:27:50.647Z,100965.97
2024-02-29T07:30:17.125Z,100964.72
2024-02-29T07:32:43.551Z,100969.50
2024-02-29T07:35:13.101Z,100964.94
2024-02-29T07:37:39.995Z,100968.44
2024-02-29T07:40:08.057Z,100962.00
2024-02-29T07:42:34.722Z,100957.84
2024-02-29T07:45:01.213Z,100961.75
2024-02-29T07:47:27.790Z,100958.81
2024-02-29T07:49:54.265Z,100956.31
2024-02-29T07:52:20.711Z,100961.28
2024-02-29T07:54:47.395Z,100955.03
2024-02-29T07:57:14.011Z,100950.84
2024-02-29T07:59:40.609Z,100952.84
2024-02-29T08:02:07.367Z,100943.19
2024-02-29T08:04:34.333Z,100940.44
2024-02-29T08:07:00.780Z,100945.03
2024-02-29T08:09:27.440Z,100935.56
2024-02-29T08:11:53.956Z,100934.69
2024-02-29T08:14:21.089Z,100935.97
2024-02-29T08:16:47.915Z,100936.88
2024-02-29T08:19:14.552Z,100933.72
2024-02-29T08:21:41.476Z,100927.22
2024-02-29T08:24:08.232Z,100921.19
2024-02-29T08:26:34.782Z,100924.53
2024-02-29T08:29:01.274Z,100913.59
2024-02-29T08:31:28.049Z,100916.69
2024-02-29T08:33:54.709Z,100909.22
2024-02-29T08:36:21.879Z,100906.66
2024-02-29T08:38:48.790Z,100901.69
2024-02-29T08:41:15.367Z,100895.72
2024-02-29T08:43:46.180Z,100891.50
2024-02-29T08:46:18.510Z,100883.53
2024-02-29T08:48:54.201Z,100883.97
2024-02-29T08:51:28.258Z,100881.03
2024-02-29T08:54:10.537Z,100874.97
2024-02-29T08:56:39.853Z,100876.25
2024-02-29T08:59:06.393Z,100870.22
2024-02-29T09:01:36.180Z,100870.59
2024-02-29T09:04:02.885Z,100867.00
2024-02-29T09:06:39.093Z,100868.19
2024-02-29T09:09:08.165Z,100863.47
2024-02-29T09:11:34.654Z,100858.41
2024-02-29T09:14:01.192Z,100850.41
2024-02-29T09:16:27.698Z,100859.94
2024-02-29T09:18:54.788Z,100858.97
2024-02-29T09:21:23.564Z,100854.16
2024-02-29T09:23:50.756Z,100853.34
2024-02-29T09:26:19.225Z,100849.75
2024-02-29T09:28:45.970Z,100852.47
2024-02-29T09:31:15.673Z,100839.00
2024-02-29T09:33:48.274Z,100839.63
2024-02-29T09:36:28.661Z,100840.13
2024-02-29T09:38:55.122Z,100842.34
2024-02-29T09:41:32.874Z,100834.53
2024-02-29T09:44:10.470Z,100835.69
2024-02-29T09:46:39.002Z,100827.00
2024-02-29T09:49:05.567Z,100828.28
2024-02-29T09:51:32.629Z,100816.00
2024-02-29T09:54:00.506Z,100817.44
2024-02-29T09:56:29.083Z,100807.03
2024-02-29T09:58:57.286Z,100799.97
2024-02-29T10:01:23.973Z,100808.19
2024-02-29T10:03:51.779Z,100805.38
2024-02-29T10:06:18.732Z,100805.56
2024-02-29T10:08:51.659Z,100803.34
2024-02-29T10:11:18.589Z,100799.56
2024-02-29T10:13:45.765Z,100794.44
2024-02-29T10:16:13.819Z,100791.44
2024-02-29T10:18:40.547Z,100787.25
2024-02-29T10:21:16.469Z,100781.53
2024-02-29T10:23:44.280Z,100784.16
2024-02-29T10:26:10.882Z,100779.22
2024-02-29T10:28:37.364Z,100777.88
2024-02-29T10:31:04.357Z,100768.19
2024-02-29T10:33:33.979Z,100774.03
2024-02-29T10:36:12.427Z,100764.75
2024-02-29T10:38:39.151Z,100762.41
2024-02-29T10:41:09.563Z,100761.03
2024-02-29T10:43:37.606Z,100752.34
2024-02-29T10:46:06.219Z,100750.66
2024-02-29T10:48:48.123Z,100743.63
2024-02-29T10:51:28.168Z,100734.81
2024-02-29T10:54:24.477Z,100724.09
2024-02-29T10:56:57.913Z,100728.50
2024-02-29T10:59:28.689Z,100717.56
2024-02-29T11:02:04.065Z,100722.53
2024-02-29T11:04:30.901Z,100719.47
2024-02-29T11:07:01.579Z,100702.78
2024-02-29T11:09:32.801Z,100706.22
2024-02-29T11:12:15.049Z,100709.50
2024-02-29T11:14:48.875Z,100710.41
2024-02-29T11:17:16.216Z,100704.34
2024-02-29T11:19:51.741Z,100703.66
2024-02-29T11:22:32.853Z,100697.16
2024-02-29T11:28:06.175Z,100692.19
2024-02-29T11:30:39.156Z,100684.34
2024-02-29T11:33:26.308Z,100688.34
2024-02-29T11:36:02.671Z,100685.56
2024-02-29T11:38:36.336Z,100676.84
2024-02-29T11:41:41.250Z,100671.41
2024-02-29T11:44:08.171Z,100668.97
2024-02-29T11:46:34.763Z,100669.16
2024-02-29T11:49:01.341Z,100662.38
2024-02-29T11:51:29.573Z,100655.34
2024-02-29T11:53:56.250Z,100659.47
2024-02-29T11:56:22.919Z,100653.50
2024-02-29T11:58:51.078Z,100650.88
2024-02-29T12:01:17.607Z,100640.63
2024-02-29T12:03:45.114Z,100630.44
2024-02-29T12:06:11.764Z,100625.19
2024-02-29T12:08:39.859Z,100625.00
2024-02-29T12:13:51.542Z,100610.41
2024-02-29T12:16:18.411Z,100604.97
2024-02-29T12:18:46.722Z,100597.66
2024-02-29T12:21:13.300Z,100593.41
2024-02-29T12:23:40.693Z,100592.59
2024-02-29T12:26:19.634Z,100586.53
2024-02-29T12:28:49.024Z,100588.94
2024-02-29T12:31:15.896Z,100584.88
2024-02-29T12:33:43.894Z,100583.03
2024-02-29T12:36:14.304Z,100574.91
2024-02-29T12:38:41.110Z,100563.72
2024-02-29T12:41:07.843Z,100571.69
2024-02-29T12:43:37.702Z,100563.84
2024-02-29T12:46:04.939Z,100562.03
2024-02-29T12:48:32.068Z,100554.09
2024-02-29T12:50:58.849Z,100547.59
2024-02-29T12:53:26.070Z,100543.00
2024-02-29T12:55:53.518Z,100531.06
2024-02-29T12:58:20.282Z,100533.47
2024-02-29T13:00:46.964Z,100522.66
2024-02-29T13:03:13.707Z,100513.47
2024-02-29T13:05:41.196Z,100510.16
2024-02-29T13:08:09.931Z,100512.34
2024-02-29T13:10:36.539Z,100500.44
2024-02-29T13:13:10.123Z,100492.25
2024-02-29T13:15:37.526Z,100490.63
2024-02-29T13:18:04.068Z,100485.72
2024-02-29T13:20:30.543Z,100480.25
2024-02-29T13:22:57.482Z,100483.56
2024-02-29T13:25:23.938Z,100476.22
2024-02-29T13:27:50.556Z,100460.41
2024-02-29T13:30:17.169Z,100457.66
2024-02-29T13:32:43.672Z,100455.78
2024-02-29T13:35:10.178Z,100450.91
2024-02-29T13:37:36.744Z,100442.16
2024-02-29T13:40:04.674Z,100441.06
2024-02-29T13:42:31.213Z,100439.16
2024-02-29T13:44:57.652Z,100437.78
2024-02-29T13:47:24.170Z,100426.53
2024-02-29T13:49:50.934Z,100417.75
2024-02-29T13:52:20.427Z,100423.97
2024-02-29T13:54:47.298Z,100415.25
2024-02-29T13:57:15.407Z,100411.41
2024-02-29T13:59:43.644Z,100404.34
2024-02-29T14:02:10.282Z,100406.59
2024-02-29T14:04:37.219Z,100399.22
2024-02-29T14:07:05.372Z,100391.09
2024-02-29T14:09:34.077Z,100397.41
2024-02-29T14:12:01.281Z,100390.88
2024-02-29T14:14:28.387Z,100384.56
2024-02-29T14:16:55.234Z,100377.19
2024-02-29T14:19:21.822Z,100385.13
2024-02-29T14:21:48.386Z,100368.50
2024-02-29T14:24:14.890Z,100373.38
2024-02-29T14:26:41.482Z,100360.88
2024-02-29T14:29:07.983Z,100373.69
2024-02-29T14:31:34.864Z,100357.59
2024-02-29T14:34:01.406Z,100355.44
2024-02-29T14:36:28.504Z,100345.31
2024-02-29T14:39:09.691Z,100356.22
2024-02-29T14:41:38.134Z,100347.75
2024-02-29T14:44:04.991Z,100346.13
2024-02-29T14:46:48.433Z,100344.50
2024-02-29T14:49:15.682Z,100335.50
2024-02-29T14:51:42.545Z,100327.84
2024-02-29T14:54:09.157Z,100321.59
2024-02-29T14:56:37.099Z,100332.53
2024-02-29T14:59:05.263Z,100330.34
2024-02-29T15:01:32.694Z,100319.44
2024-02-29T15:03:59.452Z,100320.28
2024-02-29T15:06:32.162Z,100320.56
2024-02-29T15:08:58.970Z,100311.53
2024-02-29T15:11:27.519Z,100309.63
2024-02-29T15:13:54.928Z,100305.56
2024-02-29T15:16:21.714Z,100304.75
2024-02-29T15:18:48.632Z,100300.94
2024-02-29T15:21:15.225Z,100295.50
2024-02-29T15:23:41.872Z,100288.91
2024-02-29T15:26:11.943Z,100297.09
2024-02-29T15:28:41.548Z,100290.31
2024-02-29T15:31:09.140Z,100286.22
2024-02-29T15:33:35.969Z,100280.72
2024-02-29T15:36:02.562Z,100275.53
2024-02-29T15:38:29.058Z,100282.06
2024-02-29T15:40:59.813Z,100276.91
2024-02-29T15:43:27.053Z,100276.13
2024-02-29T15:45:53.685Z,100266.03
2024-02-29T15:48:20.253Z,100263.28
2024-02-29T15:50:46.941Z,100260.28
2024-02-29T15:53:16.440Z,100252.66
2024-02-29T15:55:42.989Z,100257.88
2024-02-29T15:58:09.914Z,100256.75
2024-02-29T16:00:40.412Z,100248.59
2024-02-29T16:03:07.313Z,100250.22
2024-02-29T16:05:37.278Z,100242.06
2024-02-29T16:08:04.172Z,100241.50
2024-02-29T16:10:30.954Z,100235.81
2024-02-29T16:13:02.504Z,100238.81
2024-02-29T16:15:30.402Z,100240.44
2024-02-29T16:17:56.976Z,100231.72
2024-02-29T16:20:23.576Z,100230.66
2024-02-29T16:22:50.332Z,100225.47
2024-02-29T16:25:19.288Z,100227.38
2024-02-29T16:27:46.072Z,100230.66
2024-02-29T16:30:12.798Z,100226.81
2024-02-29T16:32:39.190Z,100227.13
2024-02-29T16:35:06.435Z,100228.47
2024-02-29T16:37:33.148Z,100221.94
2024-02-29T16:39:59.738Z,100215.41
2024-02-29T16:42:27.284Z,100216.47
2024-02-29T16:44:53.681Z,100215.94
2024-02-29T16:47:20.169Z,100212.13
2024-02-29T16:49:48.037Z,100213.22
2024-02-29T16:52:15.406Z,100217.03
2024-02-29T16:54:41.979Z,100212.16
2024-02-29T16:57:08.457Z,100205.88
2024-02-29T16:59:37.042Z,100211.31
2024-02-29T17:02:03.675Z,100196.34
2024-02-29T17:04:30.586Z,100193.38
2024-02-29T17:06:57.124Z,100187.38
2024-02-29T17:09:23.587Z,100195.78
2024-02-29T17:11:50.154Z,100190.34
2024-02-29T17:14:16.702Z,100185.72
2024-02-29T17:16:43.388Z,100196.88
2024-02-29T17:19:10.131Z,100191.44
2024-02-29T17:21:37.843Z,100204.22
2024-02-29T17:24:07.174Z,100194.69
2024-02-29T17:26:34.892Z,100192.53
2024-02-29T17:29:01.360Z,100193.59
2024-02-29T17:31:27.976Z,100186.00
2024-02-29T17:33:54.510Z,100194.16
2024-02-29T17:36:21.189Z,100185.69
2024-02-29T17:38:48.140Z,100180.28
2024-02-29T17:41:15.425Z,100192.22
2024-02-29T17:43:42.496Z,100177.25
2024-02-29T17:46:09.027Z,100180.47
2024-02-29T17:48:36.550Z,100177.75
2024-02-29T17:51:04.349Z,100172.06
2024-02-29T17:53:30.757Z,100178.56
2024-02-29T17:55:57.204Z,100180.72
2024-02-29T17:58:23.908Z,100177.72
2024-02-29T18:00:50.389Z,100168.75
2024-02-29T18:03:16.928Z,100180.97
2024-02-29T18:05:44.110Z,100173.34
2024-02-29T18:08:10.850Z,100169.00
2024-02-29T18:10:37.589Z,100169.53
2024-02-29T18:13:04.347Z,100165.13
2024-02-29T18:15:31.865Z,100164.88
2024-02-29T18:17:58.364Z,100164.56
2024-02-29T18:20:26.195Z,100165.13
2024-02-29T18:22:52.655Z,100168.06
2024-02-29T18:25:22.279Z,100163.19
2024-02-29T18:27:48.785Z,100160.19
2024-02-29T18:30:15.922Z,100161.81
2024-02-29T18:32:42.311Z,100166.16
2024-02-29T18:35:10.592Z,100165.06
2024-02-29T18:37:38.428Z,100157.41
2024-02-29T18:40:05.510Z,100160.66
2024-02-29T18:42:32.198Z,100159.47
2024-02-29T18:44:59.609Z,100151.81
2024-02-29T18:47:26.344Z,100153.44
2024-02-29T18:49:52.730Z,100156.50
2024-02-29T18:52:20.216Z,100149.16
2024-02-29T18:54:46.673Z,100154.81
2024-02-29T18:57:13.261Z,100152.88
2024-02-29T18:59:39.637Z,100152.31
2024-02-29T19:02:06.080Z,100150.38
2024-02-29T19:04:32.797Z,100158.97
2024-02-29T19:06:59.308Z,100147.84
2024-02-29T19:09:26.605Z,100146.16
2024-02-29T19:11:53.016Z,100144.22
2024-02-29T19:14:20.019Z,100152.31
2024-02-29T19:16:46.670Z,100149.06
2024-02-29T19:19:13.770Z,100143.03
2024-02-29T19:21:40.352Z,100146.28
2024-02-29T19:24:10.101Z,100140.31
2024-02-29T19:26:37.074Z,100140.50
2024-02-29T19:29:03.770Z,100149.16
2024-02-29T19:31:30.247Z,100145.00
2024-02-29T19:33:56.753Z,100144.44
2024-02-29T19:36:26.766Z,100144.69
2024-02-29T19:38:53.910Z,100141.41
2024-02-29T19:41:20.300Z,100143.56
2024-02-29T19:43:46.984Z,100135.91
2024-02-29T19:46:13.518Z,100129.88
2024-02-29T19:48:39.930Z,100130.66
2024-02-29T19:51:08.002Z,100128.41
2024-02-29T19:53:36.809Z,100133.53
2024-02-29T19:56:03.333Z,100124.91
2024-02-29T19:58:29.776Z,100126.41
2024-02-29T20:01:01.557Z,100118.75
2024-02-29T20:03:29.008Z,100116.63
2024-02-29T20:05:56.862Z,100116.03
2024-02-29T20:08:23.380Z,100114.91
2024-02-29T20:10:49.806Z,100112.47
2024-02-29T20:13:16.266Z,100108.38
2024-02-29T20:15:42.791Z,100112.66
2024-02-29T20:18:09.472Z,100101.28
2024-02-29T20:20:35.983Z,100102.88
2024-02-29T20:23:02.529Z,100098.25
2024-02-29T20:25:30.378Z,100093.06
2024-02-29T20:27:57.620Z,100087.78
2024-02-29T20:30:24.313Z,100091.53
2024-02-29T20:32:51.372Z,100091.28
2024-02-29T20:35:18.025Z,100091.00
2024-02-29T20:37:44.641Z,100088.56
2024-02-29T20:40:11.830Z,100085.72
2024-02-29T20:42:39.102Z,100087.84
2024-02-29T20:45:06.132Z,100079.50
2024-02-29T20:47:33.185Z,100077.22
2024-02-29T20:49:59.764Z,100077.56
2024-02-29T20:52:26.879Z,100076.59
2024-02-29T20:54:53.636Z,100075.47
2024-02-29T20:57:20.560Z,100072.50
2024-02-29T20:59:47.215Z,100074.16
2024-02-29T21:02:13.990Z,100072.50
2024-02-29T21:04:40.610Z,100072.19
2024-02-29T21:07:07.128Z,100065.97
2024-02-29T21:09:35.320Z,100060.47
2024-02-29T21:12:01.928Z,100062.69
2024-02-29T21:14:28.966Z,100056.72
2024-02-29T21:16:55.424Z,100051.53
2024-02-29T21:19:21.934Z,100046.13
2024-02-29T21:21:48.534Z,100056.19
2024-02-29T21:24:15.621Z,100049.72
2024-02-29T21:26:42.462Z,100045.63
2024-02-29T21:29:09.387Z,100047.78
2024-02-29T21:31:36.023Z,100048.78
2024-02-29T21:34:02.553Z,100046.81
2024-02-29T21:36:28.997Z,100045.75
2024-02-29T21:38:56.053Z,100041.72
2024-02-29T21:41:23.492Z,100039.78
2024-02-29T21:43:50.683Z,100047.81
2024-02-29T21:46:17.393Z,100031.50
2024-02-29T21:48:46.871Z,100034.75
2024-02-29T21:51:20.294Z,100037.53
2024-02-29T21:53:48.378Z,100022.59
2024-02-29T21:56:15.062Z,100028.25
2024-02-29T21:58:42.495Z,100014.72
2024-02-29T22:01:09.124Z,100016.03
2024-02-29T22:03:35.721Z,100021.66
2024-02-29T22:06:02.420Z,100013.53
2024-02-29T22:08:29.625Z,100015.66
2024-02-29T22:10:56.061Z,100008.69
2024-02-29T22:13:22.546Z,100009.75
2024-02-29T22:15:49.092Z,100002.47
2024-02-29T22:18:16.083Z,99992.31
2024-02-29T22:20:46.552Z,100000.69
2024-02-29T22:23:14.008Z,99995.66
2024-02-29T22:25:40.458Z,99984.25
2024-02-29T22:28:07.048Z,99991.31
2024-02-29T22:30:33.493Z,99988.84
2024-02-29T22:33:00.050Z,99976.69
2024-02-29T22:35:26.583Z,99980.94
2024-02-29T22:37:53.038Z,99983.69
2024-02-29T22:40:19.486Z,99984.25
2024-02-29T22:42:46.755Z,99981.31
2024-02-29T22:45:13.252Z,99984.25
2024-02-29T22:47:39.683Z,99981.06
2024-02-29T22:50:06.680Z,99983.25
2024-02-29T22:52:33.146Z,99985.91
2024-02-29T22:54:59.654Z,99979.97
2024-02-29T22:57:26.137Z,99976.69
2024-02-29T22:59:52.525Z,99974.00
2024-02-29T23:02:19.042Z,99970.28
2024-02-29T23:04:45.557Z,99969.78
2024-02-29T23:07:12.075Z,99972.41
2024-02-29T23:09:38.555Z,99971.84
2024-02-29T23:12:05.940Z,99981.19
2024-02-29T23:14:32.454Z,99971.72
2024-02-29T23:16:59.008Z,99966.88
2024-02-29T23:19:26.640Z,99969.88
2024-02-29T23:21:53.148Z,99970.91
2024-02-29T23:24:19.606Z,99967.66
2024-02-29T23:26:46.167Z,99957.72
2024-02-29T23:29:12.675Z,99962.34
2024-02-29T23:31:39.741Z,99965.44
2024-02-29T23:34:06.384Z,99947.75
2024-02-29T23:36:32.793Z,99949.69
2024-02-29T23:38:59.244Z,99947.31
2024-02-29T23:41:26.166Z,99942.63
2024-02-29T23:43:53.792Z,99934.81
2024-02-29T23:46:20.760Z,99933.25
2024-02-29T23:48:47.387Z,99935.38
2024-02-29T23:51:13.988Z,99932.75
2024-02-29T23:53:40.463Z,99931.16
2024-02-29T23:56:07.084Z,99926.25
2024-02-29T23:58:33.657Z,99926.81
